Time;durP1;ratioP1;P1;durP2;ratioP2;P2;SDS_P1;SDS_P2;PMS_P1;PMS_P2;Temp;Humidity;BMP_temperature;BMP_pressure;BME280_temperature;BME280_humidity;BME280_pressure;Samples;Min_cycle;Max_cycle;Signal;HPM_P1;HPM_P2
2021/06/16 00:01:56;;;;;;;10.25;3.55;;;;;;;17.51;57.19;101667.44;5256576;28;20020;-66
2021/06/16 00:04:27;;;;;;;8.90;3.80;;;;;;;17.44;57.38;101663.75;5257343;28;20398;-67
2021/06/16 00:06:59;;;;;;;9.40;3.50;;;;;;;17.49;57.93;101662.28;5255249;28;20111;-67
2021/06/16 00:09:30;;;;;;;8.05;4.03;;;;;;;17.59;58.38;101654.25;5256836;28;20036;-67
2021/06/16 00:12:02;;;;;;;9.43;3.40;;;;;;;17.38;58.60;101662.53;5255295;28;20727;-67
2021/06/16 00:14:34;;;;;;;9.52;3.55;;;;;;;17.30;58.70;101662.47;5256942;28;20025;-68
2021/06/16 00:17:05;;;;;;;10.25;3.60;;;;;;;17.27;59.00;101655.69;5254040;28;20495;-68
2021/06/16 00:19:37;;;;;;;8.63;3.55;;;;;;;17.24;58.81;101653.34;5256585;28;20503;-68
2021/06/16 00:22:08;;;;;;;9.93;3.38;;;;;;;17.35;58.17;101654.91;5257002;28;20387;-67
2021/06/16 00:24:39;;;;;;;10.10;3.72;;;;;;;17.22;58.65;101654.47;5254401;28;20444;-67
2021/06/16 00:27:11;;;;;;;9.65;3.67;;;;;;;17.19;57.63;101650.31;5256140;28;20401;-67
2021/06/16 00:29:42;;;;;;;9.13;4.03;;;;;;;17.20;57.27;101645.88;5255458;28;20148;-67
2021/06/16 00:32:14;;;;;;;13.20;4.22;;;;;;;17.12;57.45;101638.69;5256817;28;20407;-68
2021/06/16 00:34:45;;;;;;;11.68;4.00;;;;;;;17.09;57.25;101628.41;5238833;28;20341;-67
2021/06/16 00:37:16;;;;;;;10.20;3.50;;;;;;;17.11;58.29;101642.31;5256181;28;20033;-66
2021/06/16 00:39:48;;;;;;;8.05;4.15;;;;;;;17.17;57.69;101638.22;5254137;28;20029;-67
2021/06/16 00:42:24;;;;;;;12.38;4.35;;;;;;;17.15;57.12;101637.53;5255834;28;20060;-67
2021/06/16 00:44:56;;;;;;;8.45;3.92;;;;;;;17.09;57.55;101639.00;5255676;28;20025;-67
2021/06/16 00:47:27;;;;;;;8.13;3.70;;;;;;;17.08;57.75;101642.59;5254867;28;20524;-67
2021/06/16 00:49:58;;;;;;;9.60;4.05;;;;;;;17.09;57.54;101639.00;5255879;28;20094;-67
2021/06/16 00:52:29;;;;;;;11.48;4.38;;;;;;;16.99;57.86;101644.34;5255420;28;20017;-67
2021/06/16 00:55:01;;;;;;;11.77;4.30;;;;;;;17.05;57.46;101637.63;5256009;28;20025;-67
2021/06/16 00:57:33;;;;;;;8.70;4.07;;;;;;;16.94;57.95;101624.63;5254263;28;20055;-67
2021/06/16 01:00:11;;;;;;;11.90;4.57;;;;;;;16.95;57.90;101627.13;5256034;28;20028;-67
2021/06/16 01:03:01;;;;;;;7.90;3.92;;;;;;;16.97;57.96;101629.59;5256079;28;20061;-68
2021/06/16 01:05:39;;;;;;;11.85;4.30;;;;;;;16.89;57.95;101624.25;5253000;28;20054;-67
2021/06/16 01:08:16;;;;;;;9.98;4.20;;;;;;;16.93;58.23;101622.94;5254435;28;20025;-67
2021/06/16 01:10:48;;;;;;;10.48;4.35;;;;;;;16.86;58.68;101619.25;5256466;28;20037;-67
2021/06/16 01:13:31;;;;;;;9.13;3.95;;;;;;;16.86;58.39;101625.41;5254466;28;20039;-67
2021/06/16 01:16:07;;;;;;;8.45;4.60;;;;;;;16.77;58.70;101621.00;5255199;28;20028;-67
2021/06/16 01:18:46;;;;;;;8.00;4.05;;;;;;;16.86;58.07;101624.53;5254457;28;20028;-67
2021/06/16 01:21:18;;;;;;;11.07;4.68;;;;;;;16.83;58.77;101622.22;5254025;28;20040;-67
2021/06/16 01:23:56;;;;;;;9.70;4.13;;;;;;;16.85;58.47;101621.06;5255514;28;20092;-68
2021/06/16 01:26:30;;;;;;;9.07;4.15;;;;;;;16.79;58.85;101619.03;5254022;28;20033;-67
2021/06/16 01:29:29;;;;;;;13.85;4.32;;;;;;;16.84;58.22;101622.06;5256113;28;20021;-67
2021/06/16 01:32:01;;;;;;;10.73;4.00;;;;;;;16.69;59.28;101628.84;5249087;28;20032;-67
2021/06/16 01:34:34;;;;;;;7.05;3.85;;;;;;;16.76;59.02;101622.00;5253790;28;20394;-67
2021/06/16 01:37:06;;;;;;;;;;;;;;;17.00;57.38;101624.00;5253868;28;20383;-67
2021/06/16 01:39:39;;;;;;;9.13;3.47;;;;;;;16.70;59.09;101615.44;5253946;28;19913;-67
2021/06/16 01:42:12;;;;;;;;;;;;;;;16.96;57.14;101606.78;5256325;28;20106;-67
2021/06/16 01:44:45;;;;;;;;;;;;;;;16.97;57.01;101608.44;5259758;28;20294;-67
2021/06/16 01:47:20;;;;;;;6.38;3.35;;;;;;;16.61;59.03;101602.31;5251424;28;19924;-68
2021/06/16 01:49:54;;;;;;;9.50;3.50;;;;;;;16.54;59.30;101610.00;5254255;28;20033;-68
2021/06/16 01:52:26;;;;;;;11.20;4.15;;;;;;;16.50;59.05;101606.00;5254966;28;20013;-67
2021/06/16 01:54:59;;;;;;;9.88;3.75;;;;;;;16.48;59.46;101602.69;5251938;28;20367;-68
2021/06/16 01:57:31;;;;;;;7.72;3.83;;;;;;;16.42;59.75;101606.75;5254244;28;20033;-67
2021/06/16 02:00:05;;;;;;;7.50;3.72;;;;;;;16.47;59.75;101601.00;5254738;28;20429;-67
2021/06/16 02:02:37;;;;;;;11.80;3.97;;;;;;;16.43;59.86;101595.19;5248395;28;20040;-67
2021/06/16 02:05:09;;;;;;;9.70;4.20;;;;;;;16.39;59.54;101609.69;5254063;28;20025;-67
2021/06/16 02:07:43;;;;;;;9.40;4.13;;;;;;;16.30;60.31;101600.00;5252056;28;20422;-67
2021/06/16 02:10:18;;;;;;;8.98;3.90;;;;;;;16.27;60.18;101601.13;5252099;28;20279;-67
2021/06/16 02:12:51;;;;;;;8.98;4.00;;;;;;;16.25;60.70;101595.19;5253298;28;20052;-67
2021/06/16 02:15:27;;;;;;;8.05;3.60;;;;;;;16.23;60.57;101598.94;5254978;28;20459;-67
2021/06/16 02:18:00;;;;;;;9.60;4.10;;;;;;;16.16;60.77;101596.06;5253721;28;20047;-67
2021/06/16 02:20:32;;;;;;;10.13;3.70;;;;;;;16.15;60.93;101583.81;5252018;28;20055;-67
2021/06/16 02:23:03;;;;;;;12.32;3.58;;;;;;;16.09;61.20;101581.75;5253697;28;20025;-67
2021/06/16 02:25:36;;;;;;;7.07;3.50;;;;;;;16.22;61.15;101586.72;5245439;28;20123;-67
2021/06/16 02:28:07;;;;;;;7.87;4.00;;;;;;;16.09;61.37;101584.41;5251769;28;20122;-67
2021/06/16 02:30:38;;;;;;;9.73;3.75;;;;;;;16.11;60.81;101579.81;5251595;28;20060;-66
2021/06/16 02:33:10;;;;;;;11.73;3.75;;;;;;;16.11;60.90;101579.81;5245190;28;20032;-68
2021/06/16 02:35:42;;;;;;;12.18;3.97;;;;;;;16.04;61.53;101576.94;5249850;28;20402;-68
2021/06/16 02:38:18;;;;;;;7.97;4.03;;;;;;;16.02;61.53;101575.41;5251967;28;20025;-68
2021/06/16 02:40:50;;;;;;;6.72;3.92;;;;;;;16.02;61.38;101576.25;5252610;28;20037;-66
2021/06/16 02:43:22;;;;;;;6.82;3.20;;;;;;;15.97;62.21;101577.66;5252683;28;20254;-66
2021/06/16 02:45:56;;;;;;;9.50;3.97;;;;;;;15.98;62.24;101568.75;5253603;28;20070;-66
2021/06/16 02:48:27;;;;;;;9.95;3.97;;;;;;;16.01;61.86;101569.28;5253202;28;20470;-66
2021/06/16 02:50:59;;;;;;;10.73;4.72;;;;;;;15.97;61.87;101570.56;5250768;28;20035;-66
2021/06/16 02:53:32;;;;;;;9.63;3.97;;;;;;;15.95;62.46;101571.72;5254274;28;20032;-67
2021/06/16 02:56:04;;;;;;;9.07;4.40;;;;;;;15.91;62.55;101565.03;5253321;28;20025;-67
2021/06/16 02:58:37;;;;;;;7.28;3.75;;;;;;;15.84;62.95;101558.69;5249294;28;20029;-68
2021/06/16 03:01:14;;;;;;;8.82;4.28;;;;;;;15.82;62.41;101553.53;5253293;28;20024;-67
2021/06/16 03:03:50;;;;;;;9.77;5.05;;;;;;;15.85;62.51;101550.59;5253593;28;20954;-67
2021/06/16 03:06:23;;;;;;;6.53;4.18;;;;;;;15.77;63.48;101550.50;5251510;28;20111;-67
2021/06/16 03:08:55;;;;;;;;;;;;;;;16.06;60.70;101545.03;5253690;28;20512;-67
2021/06/16 03:11:30;;;;;;;9.00;4.30;;;;;;;15.71;63.70;101538.72;5253736;28;20423;-67
2021/06/16 03:14:03;;;;;;;8.88;5.00;;;;;;;15.69;64.18;101539.84;5253719;28;20470;-67
2021/06/16 03:16:35;;;;;;;7.22;4.72;;;;;;;15.67;64.10;101532.06;5251047;28;20025;-67
2021/06/16 03:19:07;;;;;;;9.57;4.40;;;;;;;15.65;64.25;101538.44;5253489;28;20128;-67
2021/06/16 03:21:39;;;;;;;11.27;5.15;;;;;;;15.65;64.29;101534.03;5253993;28;20398;-67
2021/06/16 03:24:12;;;;;;;7.20;4.60;;;;;;;15.70;63.48;101534.41;5253859;28;20044;-68
2021/06/16 03:26:43;;;;;;;12.35;4.63;;;;;;;15.63;64.32;101537.75;5252242;28;20029;-67
2021/06/16 03:29:16;;;;;;;7.88;4.50;;;;;;;15.71;63.85;101544.00;5253895;28;20075;-67
2021/06/16 03:31:48;;;;;;;9.25;4.50;;;;;;;15.67;64.10;101541.78;5252677;28;20402;-67
2021/06/16 03:34:19;;;;;;;7.00;4.35;;;;;;;15.61;63.87;101545.84;5251495;28;20036;-67
2021/06/16 03:36:52;;;;;;;9.63;4.45;;;;;;;15.69;64.40;101539.84;5252046;28;20079;-67
2021/06/16 03:39:24;;;;;;;6.78;4.05;;;;;;;15.64;64.04;101527.03;5252712;28;20029;-67
2021/06/16 03:41:55;;;;;;;8.18;4.13;;;;;;;15.64;64.32;101534.13;5253884;28;20087;-68
2021/06/16 03:44:27;;;;;;;12.93;5.20;;;;;;;15.66;64.45;101534.84;5250833;28;20114;-68
2021/06/16 03:47:00;;;;;;;8.50;4.38;;;;;;;15.58;65.04;101531.09;5253493;28;20474;-67
2021/06/16 03:49:34;;;;;;;9.20;3.63;;;;;;;15.60;64.62;101527.47;5253184;28;20062;-67
2021/06/16 03:52:07;;;;;;;9.25;4.32;;;;;;;15.54;64.99;101535.00;5252847;28;20025;-68
2021/06/16 03:54:39;;;;;;;;;;;;;;;15.81;62.68;101526.28;5257119;28;20577;-67
2021/06/16 03:57:11;;;;;;;8.45;4.53;;;;;;;15.62;65.04;101525.53;5257827;28;19916;-67
2021/06/16 03:59:42;;;;;;;6.90;4.47;;;;;;;15.61;65.15;101518.56;5253259;28;20033;-67
2021/06/16 04:02:18;;;;;;;9.85;5.18;;;;;;;15.61;65.13;101513.28;5245126;28;20033;-67
2021/06/16 04:04:50;;;;;;;9.52;4.38;;;;;;;15.51;65.06;101516.81;5251188;28;20037;-67
2021/06/16 04:07:23;;;;;;;9.82;4.43;;;;;;;15.58;65.42;101509.16;5252800;28;20029;-67
2021/06/16 04:09:56;;;;;;;10.38;5.20;;;;;;;15.62;65.50;101513.16;5255753;28;20056;-67
2021/06/16 04:12:28;;;;;;;13.38;5.03;;;;;;;15.61;65.99;101510.63;5254366;28;20025;-67
2021/06/16 04:14:59;;;;;;;9.23;4.80;;;;;;;15.68;65.72;101520.53;5256933;28;20649;-68
2021/06/16 04:17:30;;;;;;;12.82;4.82;;;;;;;15.67;65.24;101502.16;5257006;28;20332;-68
2021/06/16 04:20:04;;;;;;;9.90;5.25;;;;;;;15.74;65.80;101508.53;5255517;28;20064;-68
2021/06/16 04:22:37;;;;;;;10.73;4.40;;;;;;;15.69;65.50;101505.50;5256650;28;20029;-69
2021/06/16 04:25:10;;;;;;;11.18;4.72;;;;;;;15.77;65.48;101503.78;5255230;28;20029;-69
2021/06/16 04:27:42;;;;;;;10.35;5.20;;;;;;;15.76;65.66;101507.41;5254255;28;20035;-68
2021/06/16 04:30:14;;;;;;;10.98;5.30;;;;;;;15.82;65.38;101498.88;5256974;28;20378;-69
2021/06/16 04:32:46;;;;;;;11.20;5.00;;;;;;;15.90;65.57;101502.59;5256446;28;20443;-69
2021/06/16 04:35:17;;;;;;;9.75;5.57;;;;;;;15.88;65.66;101502.75;5257184;28;20023;-69
2021/06/16 04:37:49;;;;;;;11.05;5.30;;;;;;;15.91;66.07;101494.53;5253390;28;20025;-69
2021/06/16 04:40:20;;;;;;;11.98;4.97;;;;;;;16.01;65.22;101486.53;5256192;28;20033;-68
2021/06/16 04:42:52;;;;;;;10.52;4.80;;;;;;;15.98;65.39;101487.66;5256572;28;20025;-69
2021/06/16 04:45:23;;;;;;;8.27;4.43;;;;;;;15.97;65.93;101480.72;5255986;28;20029;-68
2021/06/16 04:47:55;;;;;;;11.63;5.35;;;;;;;16.02;65.43;101485.53;5254357;28;20029;-68
2021/06/16 04:50:26;;;;;;;11.25;5.75;;;;;;;16.07;65.39;101482.47;5255611;28;20437;-69
2021/06/16 04:52:57;;;;;;;11.23;5.30;;;;;;;16.17;65.10;101483.22;5256406;28;20104;-69
2021/06/16 04:55:29;;;;;;;10.45;5.20;;;;;;;16.17;65.43;101485.84;5254852;28;20060;-69
2021/06/16 04:58:00;;;;;;;11.35;5.20;;;;;;;16.25;65.20;101485.91;5254686;28;20021;-69
2021/06/16 05:00:31;;;;;;;11.75;5.57;;;;;;;16.29;65.65;101476.72;5256470;28;20032;-68
2021/06/16 05:03:03;;;;;;;10.02;5.22;;;;;;;16.35;64.84;101483.22;5254058;28;20025;-68
2021/06/16 05:05:34;;;;;;;10.23;5.25;;;;;;;16.36;64.90;101472.47;5254033;28;20028;-68
2021/06/16 05:08:06;;;;;;;9.45;5.38;;;;;;;16.44;65.09;101471.69;5254452;28;20158;-69
2021/06/16 05:10:37;;;;;;;11.40;4.85;;;;;;;16.44;64.95;101472.56;5256280;28;20028;-68
2021/06/16 05:13:09;;;;;;;10.57;6.13;;;;;;;16.47;64.98;101474.03;5254578;28;20025;-69
2021/06/16 05:15:40;;;;;;;13.25;6.13;;;;;;;16.49;65.12;101472.91;5255170;28;20055;-69
2021/06/16 05:18:11;;;;;;;13.10;6.05;;;;;;;16.57;64.26;101472.16;5253770;28;20031;-69
2021/06/16 05:20:43;;;;;;;9.77;5.63;;;;;;;16.59;64.32;101472.81;5252810;28;20061;-69
2021/06/16 05:23:14;;;;;;;14.43;6.60;;;;;;;16.65;64.57;101463.44;5255046;28;20494;-69
2021/06/16 05:25:48;;;;;;;9.68;5.30;;;;;;;16.70;64.78;101469.91;5254468;28;20021;-69
2021/06/16 05:28:19;;;;;;;11.05;6.13;;;;;;;16.78;64.51;101462.09;5254117;28;20521;-69
2021/06/16 05:30:51;;;;;;;9.05;5.95;;;;;;;16.85;64.67;101467.56;5253391;28;20069;-68
2021/06/16 05:33:22;;;;;;;13.75;6.30;;;;;;;16.93;63.42;101462.34;5254262;28;20029;-68
2021/06/16 05:35:53;;;;;;;10.50;6.15;;;;;;;17.07;64.88;101465.38;5256446;28;20100;-68
2021/06/16 05:38:25;;;;;;;11.80;5.82;;;;;;;17.11;64.30;101464.91;5253394;28;20033;-68
2021/06/16 05:40:56;;;;;;;11.70;6.63;;;;;;;17.22;63.54;101459.34;5255681;28;20114;-68
2021/06/16 05:43:27;;;;;;;12.20;6.63;;;;;;;17.28;62.88;101457.91;5255578;28;20036;-69
2021/06/16 05:46:01;;;;;;;10.60;6.10;;;;;;;17.33;62.55;101452.94;5253705;28;20044;-69
2021/06/16 05:48:32;;;;;;;23.48;6.70;;;;;;;17.45;62.68;101456.94;5255267;28;20029;-68
2021/06/16 05:51:04;;;;;;;10.63;6.90;;;;;;;17.54;63.46;101463.13;5254954;28;20021;-69
2021/06/16 05:53:35;;;;;;;15.55;6.70;;;;;;;17.63;62.68;101454.19;5250886;28;20454;-68
2021/06/16 05:56:06;;;;;;;16.50;7.05;;;;;;;17.75;63.06;101452.09;5251670;28;20056;-68
2021/06/16 05:58:38;;;;;;;12.65;7.03;;;;;;;17.86;62.03;101453.63;5254189;28;20087;-68
2021/06/16 06:01:09;;;;;;;11.75;6.35;;;;;;;17.98;62.75;101450.50;5254576;28;20074;-69
2021/06/16 06:03:42;;;;;;;11.27;6.65;;;;;;;18.12;61.71;101451.66;5251409;28;20440;-68
2021/06/16 06:06:13;;;;;;;11.02;5.75;;;;;;;18.25;61.48;101445.88;5252555;28;20044;-69
2021/06/16 06:08:44;;;;;;;10.20;5.47;;;;;;;18.41;60.86;101447.69;5254965;28;20079;-68
2021/06/16 06:11:16;;;;;;;9.35;5.63;;;;;;;18.49;60.50;101447.69;5246510;28;20048;-69
2021/06/16 06:13:47;;;;;;;16.42;6.60;;;;;;;18.60;59.77;101443.84;5245242;28;20059;-69
2021/06/16 06:16:19;;;;;;;12.97;5.90;;;;;;;18.67;59.44;101443.00;5245656;28;20037;-69
2021/06/16 06:18:50;;;;;;;11.53;6.13;;;;;;;18.80;59.02;101437.22;5253706;28;20039;-68
2021/06/16 06:21:22;;;;;;;12.83;6.47;;;;;;;18.91;60.27;101434.22;5255076;28;20037;-68
2021/06/16 06:23:53;;;;;;;13.77;5.90;;;;;;;19.07;58.87;101437.81;5254528;28;20108;-69
2021/06/16 06:26:25;;;;;;;11.80;5.80;;;;;;;19.15;58.22;101425.31;5252300;28;20186;-69
2021/06/16 06:28:56;;;;;;;10.07;6.20;;;;;;;19.36;58.06;101431.91;5250253;28;20063;-68
2021/06/16 06:31:30;;;;;;;8.93;6.07;;;;;;;19.47;57.86;101425.34;5246236;28;20485;-70
2021/06/16 06:34:01;;;;;;;11.43;6.68;;;;;;;19.60;56.67;101421.13;5249012;28;20060;-68
2021/06/16 06:36:32;;;;;;;11.60;6.47;;;;;;;19.72;57.68;101412.78;5250661;28;20087;-68
2021/06/16 06:39:04;;;;;;;15.65;6.68;;;;;;;19.88;57.45;101413.47;5250073;28;20078;-68
2021/06/16 06:41:36;;;;;;;10.73;6.33;;;;;;;19.99;57.73;101406.09;5249493;28;20078;-68
2021/06/16 06:44:08;;;;;;;9.15;6.38;;;;;;;20.17;57.01;101409.28;5250801;28;20083;-68
2021/06/16 06:46:39;;;;;;;11.03;6.00;;;;;;;20.27;56.43;101401.88;5254516;28;20325;-68
2021/06/16 06:49:11;;;;;;;13.63;6.60;;;;;;;20.40;55.46;101402.06;5251313;28;20104;-69
2021/06/16 06:51:43;;;;;;;10.77;6.43;;;;;;;20.57;56.40;101397.47;5252573;28;20504;-68
2021/06/16 06:54:16;;;;;;;13.87;6.37;;;;;;;20.69;55.67;101394.34;5252767;28;20037;-68
2021/06/16 06:56:47;;;;;;;11.40;7.13;;;;;;;20.75;55.43;101402.41;5252797;28;20033;-66
2021/06/16 06:59:18;;;;;;;11.53;7.17;;;;;;;20.82;54.86;101399.84;5252096;28;20033;-67
2021/06/16 07:01:50;;;;;;;13.80;6.70;;;;;;;20.96;55.32;101400.88;5241658;28;20037;-68
2021/06/16 07:04:23;;;;;;;13.47;6.53;;;;;;;21.17;55.52;101400.91;5248989;28;20029;-68
2021/06/16 07:06:54;;;;;;;;;;;;;;;21.35;55.41;101390.72;5253887;28;20036;-68
2021/06/16 07:09:25;;;;;;;11.73;6.63;;;;;;;21.34;54.29;101385.59;5249899;28;19912;-68
2021/06/16 07:11:56;;;;;;;10.77;6.23;;;;;;;21.52;54.23;101385.16;5250528;28;20043;-68
2021/06/16 07:14:28;;;;;;;13.90;6.90;;;;;;;21.65;53.94;101384.47;5250179;28;20036;-68
2021/06/16 07:16:59;;;;;;;10.83;6.53;;;;;;;21.80;54.26;101385.22;5250652;28;20489;-68
2021/06/16 07:19:30;;;;;;;11.47;6.53;;;;;;;21.97;54.38;101377.78;5253081;28;20421;-68
2021/06/16 07:22:02;;;;;;;12.57;6.27;;;;;;;22.09;53.14;101377.09;5250029;28;20088;-69
2021/06/16 07:24:34;;;;;;;12.80;6.70;;;;;;;22.23;52.57;101375.34;5252825;28;20029;-69
2021/06/16 07:27:05;;;;;;;14.27;6.93;;;;;;;22.29;52.88;101369.25;5254982;28;20044;-69
2021/06/16 07:29:37;;;;;;;9.10;6.00;;;;;;;22.40;51.73;101370.56;5253531;28;20064;-68
2021/06/16 07:32:09;;;;;;;12.03;7.30;;;;;;;22.57;52.39;101369.22;5257058;28;20020;-69
2021/06/16 07:34:40;;;;;;;11.60;6.63;;;;;;;22.70;51.32;101368.50;5258444;28;20062;-69
2021/06/16 07:37:11;;;;;;;11.73;5.90;;;;;;;22.90;51.53;101373.94;5254344;28;20033;-69
2021/06/16 07:39:43;;;;;;;10.43;5.90;;;;;;;22.92;51.23;101371.94;5257074;28;20046;-69
2021/06/16 07:42:14;;;;;;;8.60;5.23;;;;;;;23.09;49.75;101367.03;5256588;28;20025;-69
2021/06/16 07:44:45;;;;;;;12.77;5.30;;;;;;;23.24;48.97;101359.69;5251211;28;20056;-69
2021/06/16 07:47:17;;;;;;;11.23;5.50;;;;;;;23.40;50.24;101368.38;5254731;28;20033;-69
2021/06/16 07:49:48;;;;;;;8.77;4.57;;;;;;;23.43;48.28;101358.09;5254875;28;20024;-69
2021/06/16 07:52:19;;;;;;;9.33;4.40;;;;;;;23.55;46.86;101361.00;5255281;28;20061;-69
2021/06/16 07:54:50;;;;;;;9.57;4.53;;;;;;;23.59;46.40;101350.72;5250619;28;20100;-69
2021/06/16 07:57:22;;;;;;;9.13;4.17;;;;;;;23.70;47.14;101356.31;5255231;28;20082;-69
2021/06/16 07:59:53;;;;;;;8.50;4.73;;;;;;;23.67;46.62;101347.88;5245114;28;20024;-68
2021/06/16 08:02:27;;;;;;;6.57;4.10;;;;;;;23.87;46.82;101354.09;5254995;28;20108;-67
2021/06/16 08:04:58;;;;;;;10.68;3.88;;;;;;;23.99;45.46;101340.91;5253509;28;20029;-68
2021/06/16 08:07:30;;;;;;;12.33;4.43;;;;;;;24.08;44.67;101344.19;5255707;28;20051;-68
2021/06/16 08:10:01;;;;;;;11.63;4.27;;;;;;;24.16;45.18;101343.97;5253439;28;20033;-68
2021/06/16 08:12:32;;;;;;;8.50;4.43;;;;;;;24.16;45.91;101343.97;5249321;28;20028;-67
2021/06/16 08:15:06;;;;;;;7.37;3.73;;;;;;;24.41;45.54;101341.50;5250564;28;20032;-68
2021/06/16 08:17:38;;;;;;;6.93;4.07;;;;;;;24.44;45.43;101325.84;5251415;28;20043;-68
2021/06/16 08:20:10;;;;;;;8.00;4.33;;;;;;;24.58;44.14;101323.91;5251719;28;20044;-67
2021/06/16 08:22:42;;;;;;;10.80;4.47;;;;;;;24.71;45.58;101326.56;5255078;28;20104;-68
2021/06/16 08:25:13;;;;;;;8.80;4.57;;;;;;;24.80;44.00;101329.81;5254718;28;20482;-67
2021/06/16 08:27:45;;;;;;;8.27;4.73;;;;;;;24.85;44.79;101337.22;5254151;28;20241;-68
2021/06/16 08:30:17;;;;;;;10.83;4.70;;;;;;;25.01;44.22;101336.75;5252724;28;20029;-68
2021/06/16 08:32:48;;;;;;;9.40;4.40;;;;;;;25.09;44.68;101331.16;5249192;28;20021;-68
2021/06/16 08:35:19;;;;;;;10.00;4.33;;;;;;;25.21;43.81;101332.13;5245053;28;20056;-68
2021/06/16 08:37:51;;;;;;;8.10;3.80;;;;;;;25.35;43.54;101318.66;5245010;28;20030;-68
2021/06/16 08:40:22;;;;;;;8.87;4.33;;;;;;;25.48;43.26;101326.59;5243830;28;20075;-68
2021/06/16 08:42:54;;;;;;;7.00;4.10;;;;;;;25.53;43.66;101321.41;5249956;28;20025;-68
2021/06/16 08:45:29;;;;;;;8.77;4.20;;;;;;;25.54;42.47;101316.88;5251780;28;20025;-68
2021/06/16 08:48:00;;;;;;;6.82;4.30;;;;;;;25.48;42.29;101319.38;5252288;28;20086;-68
2021/06/16 08:50:32;;;;;;;7.90;3.93;;;;;;;25.76;42.35;101320.84;5253522;28;20025;-68
2021/06/16 08:53:04;;;;;;;9.10;4.23;;;;;;;25.80;42.23;101322.06;5249765;28;20083;-68
2021/06/16 08:55:35;;;;;;;8.30;4.50;;;;;;;25.70;42.16;101311.78;5250690;28;20029;-68
2021/06/16 08:58:07;;;;;;;10.33;4.50;;;;;;;25.91;41.92;101317.81;5251229;28;20032;-68
2021/06/16 09:00:38;;;;;;;8.77;4.50;;;;;;;25.93;41.86;101319.25;5246341;28;20060;-68
2021/06/16 09:03:09;;;;;;;9.33;3.80;;;;;;;26.03;41.37;101320.63;5251406;28;20037;-68
2021/06/16 09:05:41;;;;;;;9.80;4.47;;;;;;;26.06;40.30;101315.63;5254092;28;20074;-69
2021/06/16 09:08:23;;;;;;;8.83;4.90;;;;;;;26.12;40.68;101322.78;5251617;28;20032;-69
2021/06/16 09:10:55;;;;;;;7.55;3.63;;;;;;;26.23;41.23;101313.19;5250142;28;20120;-69
2021/06/16 09:13:36;;;;;;;11.52;4.32;;;;;;;26.40;41.53;101318.78;5251355;28;20028;-68
2021/06/16 09:16:29;;;;;;;6.90;4.00;;;;;;;26.71;41.21;101311.63;5250012;28;20044;-65
2021/06/16 09:19:00;;;;;;;;;;;;;;;26.92;40.05;101309.28;5250411;28;20425;-66
2021/06/16 09:21:32;;;;;;;11.85;4.55;;;;;;;26.90;39.91;101305.22;5250201;28;19919;-66
2021/06/16 09:24:07;;;;;;;6.90;3.65;;;;;;;27.03;39.35;101304.19;5250758;28;20032;-66
2021/06/16 09:26:41;;;;;;;6.78;3.72;;;;;;;26.98;39.43;101304.88;5243150;28;20095;-67
2021/06/16 09:29:12;;;;;;;9.70;3.45;;;;;;;27.14;38.63;101300.75;5248191;28;20098;-67
2021/06/16 09:31:45;;;;;;;7.67;4.17;;;;;;;27.22;38.76;101292.38;5245781;28;20436;-67
2021/06/16 09:34:17;;;;;;;8.45;4.60;;;;;;;27.13;38.59;101293.75;5248977;28;20025;-68
2021/06/16 09:36:53;;;;;;;;;;;;;;;27.56;38.17;101293.50;5251521;28;20024;-68
2021/06/16 09:39:26;;;;;;;6.97;3.58;;;;;;;27.35;37.91;101281.41;5250026;28;19916;-67
2021/06/16 09:42:02;;;;;;;9.50;3.88;;;;;;;27.80;38.84;101288.16;5251083;28;20025;-67
2021/06/16 09:44:50;;;;;;;8.30;3.42;;;;;;;27.75;38.88;101285.34;5240940;28;20027;-67
2021/06/16 09:47:23;;;;;;;7.18;3.60;;;;;;;27.74;38.26;101287.22;5251203;28;20059;-68
2021/06/16 09:49:57;;;;;;;8.38;3.70;;;;;;;27.77;37.78;101283.22;5252486;28;20055;-68
2021/06/16 09:52:43;;;;;;;6.28;2.65;;;;;;;28.18;38.43;101276.88;5251898;28;20603;-67
2021/06/16 09:55:23;;;;;;;8.02;3.80;;;;;;;28.06;37.24;101268.81;5252511;28;20029;-68
2021/06/16 09:58:09;;;;;;;7.00;3.47;;;;;;;28.07;37.58;101267.78;5253118;28;20029;-67
2021/06/16 10:00:59;;;;;;;8.93;3.78;;;;;;;28.12;37.27;101275.16;5245962;28;20021;-68
2021/06/16 10:03:32;;;;;;;7.93;3.72;;;;;;;28.11;38.13;101268.13;5250995;28;20037;-67
2021/06/16 10:06:15;;;;;;;7.18;3.70;;;;;;;28.04;37.81;101262.88;5252602;28;20025;-67
2021/06/16 10:08:48;;;;;;;8.27;4.35;;;;;;;27.85;38.38;101272.94;5252660;28;20477;-67
2021/06/16 10:11:22;;;;;;;;;;;;;;;28.38;38.24;101260.38;5250644;28;20032;-67
2021/06/16 10:13:54;;;;;;;8.02;4.70;;;;;;;27.80;38.34;101255.84;5249344;28;20386;-67
2021/06/16 10:16:27;;;;;;;9.63;5.30;;;;;;;27.99;38.35;101259.22;5253818;28;20067;-67
2021/06/16 10:18:59;;;;;;;9.45;4.40;;;;;;;28.02;37.75;101253.38;5250977;28;20416;-67
2021/06/16 10:21:30;;;;;;;;;;;;;;;28.55;38.68;101250.47;5253963;28;20565;-67
2021/06/16 10:24:02;;;;;;;7.30;3.97;;;;;;;28.49;37.27;101245.19;5250900;28;19916;-67
2021/06/16 10:26:33;;;;;;;10.30;4.17;;;;;;;28.65;36.92;101249.03;5249920;28;20159;-67
2021/06/16 10:29:11;;;;;;;7.43;4.43;;;;;;;28.82;38.87;101252.59;5247281;28;20116;-67
2021/06/16 10:31:43;;;;;;;9.40;4.65;;;;;;;28.96;38.34;101261.19;5250416;28;20094;-67
2021/06/16 10:34:15;;;;;;;8.50;5.95;;;;;;;28.88;37.20;101257.03;5251087;28;20039;-67
2021/06/16 10:37:05;;;;;;;9.20;5.10;;;;;;;29.16;37.47;101261.59;5250661;28;20025;-67
2021/06/16 10:39:36;;;;;;;11.85;6.78;;;;;;;28.47;37.33;101252.72;5250283;28;20029;-67
2021/06/16 10:42:07;;;;;;;9.37;5.23;;;;;;;28.76;37.84;101251.69;5251485;28;20051;-67
2021/06/16 10:44:39;;;;;;;9.00;5.50;;;;;;;28.70;39.32;101255.34;5249700;28;20025;-68
2021/06/16 10:47:10;;;;;;;6.93;5.03;;;;;;;28.96;38.83;101256.63;5252792;28;20025;-67
2021/06/16 10:49:42;;;;;;;9.80;5.90;;;;;;;28.82;38.12;101248.00;5252487;28;20036;-67
2021/06/16 10:52:16;;;;;;;13.90;6.07;;;;;;;28.81;37.17;101249.06;5250316;28;20317;-68
2021/06/16 10:54:58;;;;;;;9.98;6.00;;;;;;;28.97;38.23;101249.34;5248593;28;20039;-67
2021/06/16 10:57:30;;;;;;;7.80;5.65;;;;;;;28.87;37.93;101239.22;5253830;28;20056;-66
2021/06/16 11:00:07;;;;;;;9.77;6.30;;;;;;;28.86;37.88;101243.75;5249242;28;20028;-65
2021/06/16 11:02:41;;;;;;;12.93;6.35;;;;;;;28.99;38.43;101241.88;5252468;28;20036;-67
2021/06/16 11:05:22;;;;;;;11.65;6.07;;;;;;;29.11;38.63;101239.91;5254977;28;21619;-66
2021/06/16 11:07:54;;;;;;;10.52;7.03;;;;;;;28.93;37.96;101219.34;5255410;28;20029;-67
2021/06/16 11:10:52;;;;;;;12.35;6.40;;;;;;;29.34;39.00;101230.84;5254814;28;20033;-66
2021/06/16 11:13:44;;;;;;;10.10;5.40;;;;;;;29.69;39.02;101217.09;5255639;28;20047;-66
2021/06/16 11:16:41;;;;;;;11.43;6.03;;;;;;;29.99;37.74;101219.41;5254404;28;20428;-66
2021/06/16 11:19:16;;;;;;;11.68;7.45;;;;;;;29.75;37.86;101212.59;5251387;28;20025;-66
2021/06/16 11:21:48;;;;;;;8.55;6.38;;;;;;;29.55;37.65;101211.22;5243629;28;20521;-67
2021/06/16 11:24:19;;;;;;;9.87;6.50;;;;;;;29.92;37.95;101209.84;5250474;28;20044;-67
2021/06/16 11:26:51;;;;;;;9.75;6.32;;;;;;;30.02;38.45;101209.97;5252666;28;20064;-66
2021/06/16 11:30:00;;;;;;;12.27;6.97;;;;;;;30.09;36.91;101210.63;5252567;28;20017;-66
2021/06/16 11:32:31;;;;;;;9.18;6.47;;;;;;;29.92;37.11;101202.56;5256378;28;20313;-66
2021/06/16 11:35:03;;;;;;;10.30;6.17;;;;;;;30.23;37.14;101200.25;5255420;28;20063;-66
2021/06/16 11:38:00;;;;;;;14.25;6.75;;;;;;;30.26;37.58;101188.94;5254542;28;20021;-66
2021/06/16 11:40:31;;;;;;;8.73;6.25;;;;;;;30.24;37.57;101188.41;5253581;28;20409;-65
2021/06/16 11:43:04;;;;;;;9.70;7.05;;;;;;;29.87;37.59;101185.47;5254392;28;20025;-66
2021/06/16 11:45:35;;;;;;;;;;;;;;;30.18;37.45;101189.41;5250039;28;20041;-68
2021/06/16 11:48:07;;;;;;;12.77;7.43;;;;;;;30.09;37.33;101190.88;5253101;28;19916;-66
2021/06/16 11:50:39;;;;;;;7.60;6.00;;;;;;;30.54;37.05;101188.72;5255452;28;20075;-67
2021/06/16 11:53:10;;;;;;;10.15;6.18;;;;;;;30.90;36.96;101180.16;5255296;28;20116;-67